createdAt,value
2018-07-20T00:00:07.154Z,100221.24
2018-07-20T00:02:36.389Z,100216.32
2018-07-20T00:05:06.477Z,100218.69
2018-07-20T00:07:35.941Z,100210.65
2018-07-20T00:10:05.366Z,100209.92
2018-07-20T00:12:34.652Z,100205.73
2018-07-20T00:15:03.981Z,100200.22
2018-07-20T00:17:33.231Z,100203.39
2018-07-20T00:20:02.512Z,100203.39
2018-07-20T00:22:31.820Z,100202.80
2018-07-20T00:25:01.065Z,100207.94
2018-07-20T00:27:30.417Z,100205.97
2018-07-20T00:29:59.666Z,100203.78
2018-07-20T00:32:29.023Z,100198.66
2018-07-20T00:34:58.355Z,100193.97
2018-07-20T00:37:27.523Z,100188.23
2018-07-20T00:39:56.760Z,100187.09
2018-07-20T00:42:26.110Z,100189.44
2018-07-20T00:44:55.665Z,100192.58
2018-07-20T00:47:24.987Z,100188.36
2018-07-20T00:49:54.394Z,100187.67
2018-07-20T00:52:23.678Z,100188.66
2018-07-20T00:54:53.081Z,100189.68
2018-07-20T00:57:22.382Z,100184.16
2018-07-20T00:59:51.682Z,100182.13
2018-07-20T01:02:21.495Z,100178.95
2018-07-20T01:04:51.367Z,100187.41
2018-07-20T01:07:20.610Z,100180.16
2018-07-20T01:09:50.017Z,100184.15
2018-07-20T01:12:19.285Z,100183.84
2018-07-20T01:14:48.498Z,100180.83
2018-07-20T01:17:17.799Z,100187.32
2018-07-20T01:19:47.024Z,100189.09
2018-07-20T01:22:16.301Z,100187.54
2018-07-20T01:24:45.724Z,100191.76
2018-07-20T01:27:15.013Z,100194.39
2018-07-20T01:29:44.420Z,100189.59
2018-07-20T01:32:13.818Z,100188.46
2018-07-20T01:34:43.121Z,100188.91
2018-07-20T01:37:12.420Z,100191.23
2018-07-20T01:39:41.864Z,100186.66
2018-07-20T01:42:11.022Z,100178.11
2018-07-20T01:44:40.425Z,100178.34
2018-07-20T01:47:09.830Z,100175.63
2018-07-20T01:49:39.218Z,100177.42
2018-07-20T01:52:08.438Z,100175.76
2018-07-20T01:54:37.719Z,100173.98
2018-07-20T01:57:07.161Z,100180.16
2018-07-20T01:59:36.389Z,100174.03
2018-07-20T02:02:05.672Z,100172.59
2018-07-20T02:04:35.239Z,100165.81
2018-07-20T02:07:04.539Z,100179.84
2018-07-20T02:09:33.843Z,100168.27
2018-07-20T02:12:03.235Z,100172.78
2018-07-20T02:14:33.010Z,100172.33
2018-07-20T02:17:02.396Z,100175.48
2018-07-20T02:19:31.848Z,100171.32
2018-07-20T02:22:01.270Z,100173.34
2018-07-20T02:24:30.626Z,100169.48
2018-07-20T02:26:59.976Z,100165.98
2018-07-20T02:29:29.222Z,100170.72
2018-07-20T02:31:58.573Z,100173.86
2018-07-20T02:34:27.832Z,100166.55
2018-07-20T02:36:57.082Z,100162.61
2018-07-20T02:39:26.335Z,100160.88
2018-07-20T02:41:55.567Z,100158.81
2018-07-20T02:44:24.869Z,100159.10
2018-07-20T02:46:54.385Z,100154.41
2018-07-20T02:49:23.650Z,100158.89
2018-07-20T02:51:53.009Z,100152.52
2018-07-20T02:54:22.251Z,100150.20
2018-07-20T02:56:51.604Z,100150.33
2018-07-20T02:59:20.853Z,100163.89
2018-07-20T03:01:50.211Z,100160.96
2018-07-20T03:04:19.532Z,100162.22
2018-07-20T03:06:49.086Z,100149.70
2018-07-20T03:09:18.387Z,100155.46
2018-07-20T03:11:47.912Z,100158.89
2018-07-20T03:14:17.241Z,100154.64
2018-07-20T03:16:46.510Z,100159.95
2018-07-20T03:19:15.954Z,100156.45
2018-07-20T03:21:45.199Z,100153.88
2018-07-20T03:24:14.757Z,100146.49
2018-07-20T03:26:44.005Z,100146.83
2018-07-20T03:29:13.393Z,100143.67
2018-07-20T03:31:42.704Z,100150.78
2018-07-20T03:34:12.010Z,100151.80
2018-07-20T03:36:41.430Z,100147.84
2018-07-20T03:39:11.333Z,100151.06
2018-07-20T03:41:40.619Z,100150.47
2018-07-20T03:44:09.969Z,100148.18
2018-07-20T03:46:39.329Z,100148.48
2018-07-20T03:49:08.603Z,100146.50
2018-07-20T03:51:38.031Z,100143.99
2018-07-20T03:54:07.390Z,100150.14
2018-07-20T03:56:36.721Z,100141.30
2018-07-20T03:59:05.999Z,100148.70
2018-07-20T04:01:35.238Z,100155.57
2018-07-20T04:04:04.526Z,100153.05
2018-07-20T04:06:33.828Z,100148.75
2018-07-20T04:09:03.137Z,100147.39
2018-07-20T04:11:32.534Z,100148.30
2018-07-20T04:14:01.901Z,100147.37
2018-07-20T04:16:31.159Z,100158.30
2018-07-20T04:19:00.497Z,100152.55
2018-07-20T04:21:29.861Z,100149.00
2018-07-20T04:23:59.103Z,100150.11
2018-07-20T04:26:28.381Z,100149.28
2018-07-20T04:28:57.648Z,100145.05
2018-07-20T04:31:26.958Z,100150.46
2018-07-20T04:33:56.518Z,100148.52
2018-07-20T04:36:25.837Z,100153.09
2018-07-20T04:38:55.125Z,100146.42
2018-07-20T04:41:24.118Z,100147.37
2018-07-20T04:43:53.115Z,100143.48
2018-07-20T04:46:22.095Z,100144.38
2018-07-20T04:48:51.093Z,100151.39
2018-07-20T04:51:20.087Z,100144.21
2018-07-20T04:53:49.049Z,100151.47
2018-07-20T04:56:18.105Z,100146.53
2018-07-20T04:58:47.529Z,100147.19
2018-07-20T05:01:16.810Z,100145.23
2018-07-20T05:03:46.166Z,100142.29
2018-07-20T05:06:15.431Z,100143.56
2018-07-20T05:08:44.695Z,100150.98
2018-07-20T05:11:14.042Z,100143.27
2018-07-20T05:13:43.394Z,100151.35
2018-07-20T05:16:12.730Z,100141.19
2018-07-20T05:18:42.011Z,100146.80
2018-07-20T05:21:11.323Z,100142.84
2018-07-20T05:23:40.729Z,100142.33
2018-07-20T05:26:10.025Z,100145.64
2018-07-20T05:28:39.867Z,100140.98
2018-07-20T05:31:09.120Z,100140.81
2018-07-20T05:33:38.574Z,100144.31
2018-07-20T05:36:07.959Z,100140.30
2018-07-20T05:38:37.271Z,100143.13
2018-07-20T05:41:06.521Z,100136.38
2018-07-20T05:43:35.951Z,100138.35
2018-07-20T05:46:05.214Z,100138.45
2018-07-20T05:48:34.662Z,100138.37
2018-07-20T05:51:04.022Z,100143.91
2018-07-20T05:53:33.363Z,100132.76
2018-07-20T05:56:02.600Z,100142.69
2018-07-20T05:58:31.889Z,100139.38
2018-07-20T06:01:01.225Z,100144.41
2018-07-20T06:03:30.461Z,100136.64
2018-07-20T06:05:59.717Z,100136.59
2018-07-20T06:08:29.057Z,100138.33
2018-07-20T06:10:58.430Z,100137.61
2018-07-20T06:13:27.667Z,100132.70
2018-07-20T06:15:56.930Z,100139.13
2018-07-20T06:18:26.168Z,100134.33
2018-07-20T06:20:55.438Z,100139.86
2018-07-20T06:23:24.955Z,100129.14
2018-07-20T06:25:54.259Z,100129.86
2018-07-20T06:28:23.573Z,100128.36
2018-07-20T06:30:52.942Z,100129.95
2018-07-20T06:33:22.279Z,100130.59
2018-07-20T06:35:51.665Z,100133.18
2018-07-20T06:38:20.995Z,100138.97
2018-07-20T06:40:50.261Z,100137.05
2018-07-20T06:43:19.570Z,100135.45
2018-07-20T06:45:48.838Z,100133.52
2018-07-20T06:48:18.544Z,100139.14
2018-07-20T06:50:47.764Z,100133.29
2018-07-20T06:53:16.771Z,100134.57
2018-07-20T06:55:45.743Z,100144.25
2018-07-20T06:58:14.964Z,100146.06
2018-07-20T07:00:43.910Z,100147.92
2018-07-20T07:03:13.234Z,100146.45
2018-07-20T07:05:42.631Z,100146.64
2018-07-20T07:08:11.881Z,100145.42
2018-07-20T07:10:41.241Z,100155.87
2018-07-20T07:13:10.774Z,100153.66
2018-07-20T07:15:40.118Z,100142.83
2018-07-20T07:18:09.361Z,100141.46
2018-07-20T07:20:38.740Z,100146.02
2018-07-20T07:23:08.003Z,100139.53
2018-07-20T07:25:37.350Z,100141.47
2018-07-20T07:28:07.210Z,100142.03
2018-07-20T07:30:36.557Z,100141.16
2018-07-20T07:33:05.922Z,100148.55
2018-07-20T07:35:35.181Z,100144.33
2018-07-20T07:38:04.497Z,100136.48
2018-07-20T07:40:33.871Z,100141.47
2018-07-20T07:43:03.182Z,100140.67
2018-07-20T07:45:32.571Z,100145.05
2018-07-20T07:48:01.801Z,100142.84
2018-07-20T07:50:30.995Z,100133.75
2018-07-20T07:53:00.486Z,100138.39
2018-07-20T07:55:29.782Z,100135.17
2018-07-20T07:57:59.210Z,100139.70
2018-07-20T08:00:29.609Z,100134.12
2018-07-20T08:02:59.014Z,100130.86
2018-07-20T08:05:28.569Z,100134.04
2018-07-20T08:07:57.950Z,100129.67
2018-07-20T08:10:27.364Z,100137.08
2018-07-20T08:12:56.770Z,100129.92
2018-07-20T08:15:26.222Z,100126.61
2018-07-20T08:17:55.551Z,100119.90
2018-07-20T08:20:24.840Z,100124.66
2018-07-20T08:22:54.291Z,100118.80
2018-07-20T08:25:23.737Z,100118.98
2018-07-20T08:27:53.162Z,100117.89
2018-07-20T08:30:22.674Z,100123.61
2018-07-20T08:32:51.967Z,100124.67
2018-07-20T08:35:21.271Z,100121.63
2018-07-20T08:37:50.691Z,100114.95
2018-07-20T08:40:20.054Z,100111.73
2018-07-20T08:42:49.492Z,100114.48
2018-07-20T08:45:18.870Z,100117.52
2018-07-20T08:47:48.181Z,100110.06
2018-07-20T08:50:17.444Z,100113.97
2018-07-20T08:52:46.945Z,100111.60
2018-07-20T08:55:16.197Z,100105.66
2018-07-20T08:57:45.600Z,100102.61
2018-07-20T09:00:14.942Z,100105.83
2018-07-20T09:02:44.210Z,100102.61
2018-07-20T09:05:13.470Z,100100.83
2018-07-20T09:07:42.982Z,100101.03
2018-07-20T09:10:12.542Z,100096.55
2018-07-20T09:12:41.914Z,100088.30
2018-07-20T09:15:11.131Z,100091.14
2018-07-20T09:17:40.383Z,100093.51
2018-07-20T09:20:09.833Z,100085.63
2018-07-20T09:22:39.194Z,100086.66
2018-07-20T09:25:08.473Z,100080.25
2018-07-20T09:27:37.441Z,100078.56
2018-07-20T09:30:06.434Z,100081.59
2018-07-20T09:32:35.378Z,100073.12
2018-07-20T09:35:04.438Z,100082.36
2018-07-20T09:37:33.890Z,100074.95
2018-07-20T09:40:03.213Z,100081.95
2018-07-20T09:42:32.490Z,100085.04
2018-07-20T09:45:01.774Z,100074.05
2018-07-20T09:47:31.074Z,100075.13
2018-07-20T09:50:00.502Z,100078.52
2018-07-20T09:52:29.941Z,100077.44
2018-07-20T09:54:59.201Z,100075.70
2018-07-20T09:57:28.494Z,100077.87
2018-07-20T09:59:57.832Z,100078.17
2018-07-20T10:02:27.603Z,100078.31
2018-07-20T10:04:57.448Z,100068.30
2018-07-20T10:07:27.178Z,100071.02
2018-07-20T10:09:56.451Z,100079.08
2018-07-20T10:12:25.734Z,100070.63
2018-07-20T10:14:55.062Z,100073.39
2018-07-20T10:17:24.330Z,100071.13
2018-07-20T10:19:53.758Z,100064.03
2018-07-20T10:22:27.644Z,100059.22
2018-07-20T10:24:57.004Z,100056.27
2018-07-20T10:27:26.774Z,100057.14
2018-07-20T10:29:56.072Z,100059.80
2018-07-20T10:32:25.444Z,100058.02
2018-07-20T10:34:54.878Z,100062.55
2018-07-20T10:37:24.220Z,100055.84
2018-07-20T10:39:53.690Z,100054.94
2018-07-20T10:42:23.051Z,100046.02
2018-07-20T10:44:52.389Z,100045.06
2018-07-20T10:47:21.821Z,100036.60
2018-07-20T10:49:51.091Z,100035.23
2018-07-20T10:52:20.374Z,100033.11
2018-07-20T10:54:49.664Z,100029.52
2018-07-20T10:57:19.159Z,100035.91
2018-07-20T10:59:48.663Z,100028.13
2018-07-20T11:02:19.002Z,100030.28
2018-07-20T11:04:48.567Z,100013.09
2018-07-20T11:07:17.802Z,100026.09
2018-07-20T11:09:47.149Z,100021.80
2018-07-20T11:12:16.506Z,100018.75
2018-07-20T11:14:45.927Z,100014.25
2018-07-20T11:17:15.130Z,100011.23
2018-07-20T11:19:44.430Z,100005.55
2018-07-20T11:22:13.784Z,99999.06
2018-07-20T11:24:43.081Z,100001.43
2018-07-20T11:27:12.312Z,100000.84
2018-07-20T11:29:41.654Z,99996.16
2018-07-20T11:32:10.926Z,99990.58
2018-07-20T11:34:40.550Z,99996.44
2018-07-20T11:37:09.792Z,99985.63
2018-07-20T11:39:38.970Z,99979.11
2018-07-20T11:42:08.192Z,99986.59
2018-07-20T11:44:37.480Z,99977.45
2018-07-20T11:47:06.730Z,99982.50
2018-07-20T11:49:36.170Z,99981.17
2018-07-20T11:52:05.403Z,99980.56
2018-07-20T11:54:34.853Z,99978.31
2018-07-20T11:57:04.111Z,99971.77
2018-07-20T11:59:33.467Z,99970.20
2018-07-20T12:02:02.929Z,99970.01
2018-07-20T12:04:32.354Z,99967.45
2018-07-20T12:07:01.691Z,99970.45
2018-07-20T12:09:31.085Z,99962.13
2018-07-20T12:12:00.338Z,99955.33
2018-07-20T12:14:29.676Z,99958.88
2018-07-20T12:16:58.934Z,99946.25
2018-07-20T12:19:28.141Z,99942.20
2018-07-20T12:21:57.458Z,99942.11
2018-07-20T12:24:26.841Z,99938.18
2018-07-20T12:26:56.115Z,99934.04
2018-07-20T12:29:25.534Z,99935.81
2018-07-20T12:31:55.021Z,99934.55
2018-07-20T12:34:24.243Z,99919.93
2018-07-20T12:36:53.409Z,99928.15
2018-07-20T12:39:22.662Z,99935.62
2018-07-20T12:41:52.013Z,99929.86
2018-07-20T12:44:21.530Z,99930.19
2018-07-20T12:46:50.892Z,99926.59
2018-07-20T12:49:20.168Z,99922.44
2018-07-20T12:51:49.606Z,99915.77
2018-07-20T12:54:18.842Z,99925.61
2018-07-20T12:56:47.856Z,99916.48
2018-07-20T12:59:16.780Z,99912.41
2018-07-20T13:01:45.969Z,99910.59
2018-07-20T13:04:14.907Z,99918.83
2018-07-20T13:06:44.249Z,99909.77
2018-07-20T13:09:13.935Z,99909.64
2018-07-20T13:11:43.759Z,99898.06
2018-07-20T13:14:13.497Z,99889.20
2018-07-20T13:16:43.354Z,99901.83
2018-07-20T13:19:12.652Z,99899.91
2018-07-20T13:21:42.209Z,99886.31
2018-07-20T13:24:11.495Z,99881.11
2018-07-20T13:26:40.818Z,99888.41
2018-07-20T13:29:09.994Z,99883.94
2018-07-20T13:31:39.309Z,99876.47
2018-07-20T13:34:08.782Z,99877.48
2018-07-20T13:36:38.033Z,99875.15
2018-07-20T13:39:10.195Z,99870.74
2018-07-20T13:41:40.374Z,99874.57
2018-07-20T13:44:09.800Z,99871.85
2018-07-20T13:46:39.205Z,99878.19
2018-07-20T13:49:08.474Z,99856.70
2018-07-20T13:51:37.995Z,99858.77
2018-07-20T13:54:07.254Z,99852.30
2018-07-20T13:56:36.615Z,99848.53
2018-07-20T13:59:05.865Z,99847.81
2018-07-20T14:01:35.214Z,99847.91
2018-07-20T14:04:04.498Z,99842.82
2018-07-20T14:06:33.725Z,99832.52
2018-07-20T14:09:03.177Z,99830.08
2018-07-20T14:11:32.520Z,99831.55
2018-07-20T14:14:01.915Z,99828.53
2018-07-20T14:16:31.225Z,99836.27
2018-07-20T14:19:00.622Z,99833.10
2018-07-20T14:21:29.998Z,99831.55
2018-07-20T14:23:59.328Z,99827.80
2018-07-20T14:26:28.751Z,99835.10
2018-07-20T14:28:58.000Z,99823.96
2018-07-20T14:31:27.284Z,99821.45
2018-07-20T14:33:56.528Z,99821.38
2018-07-20T14:36:26.022Z,99825.63
2018-07-20T14:38:55.291Z,99821.25
2018-07-20T14:41:35.750Z,99820.33
2018-07-20T14:44:05.032Z,99811.94
2018-07-20T14:46:34.831Z,99813.30
2018-07-20T14:49:05.086Z,99814.03
2018-07-20T14:51:34.342Z,99801.86
2018-07-20T14:54:03.814Z,99808.23
2018-07-20T14:56:33.089Z,99804.19
2018-07-20T14:59:02.422Z,99807.15
2018-07-20T15:01:31.833Z,99804.53
2018-07-20T15:04:01.117Z,99791.10
2018-07-20T15:06:30.345Z,99793.13
2018-07-20T15:08:59.712Z,99789.77
2018-07-20T15:11:29.048Z,99787.65
2018-07-20T15:13:58.430Z,99786.62
2018-07-20T15:16:27.651Z,99779.67
2018-07-20T15:18:56.938Z,99773.54
2018-07-20T15:21:26.246Z,99777.20
2018-07-20T15:23:55.798Z,99778.89
2018-07-20T15:26:25.166Z,99776.59
2018-07-20T15:28:54.514Z,99774.05
2018-07-20T15:31:23.730Z,99769.86
2018-07-20T15:33:53.195Z,99771.00
2018-07-20T15:36:22.443Z,99765.26
2018-07-20T15:38:51.656Z,99760.88
2018-07-20T15:41:21.161Z,99751.77
2018-07-20T15:43:50.518Z,99748.39
2018-07-20T15:46:19.936Z,99752.66
2018-07-20T15:48:49.365Z,99747.83
2018-07-20T15:51:18.771Z,99748.14
2018-07-20T15:53:48.151Z,99746.36
2018-07-20T15:56:17.812Z,99743.84
2018-07-20T15:58:47.350Z,99736.13
2018-07-20T16:01:16.635Z,99735.94
2018-07-20T16:03:45.956Z,99738.33
2018-07-20T16:06:15.318Z,99739.15
2018-07-20T16:08:44.700Z,99746.09
2018-07-20T16:11:14.205Z,99744.20
2018-07-20T16:13:43.502Z,99746.52
2018-07-20T16:16:12.861Z,99736.39
2018-07-20T16:18:42.334Z,99734.98
2018-07-20T16:21:11.749Z,99737.60
2018-07-20T16:23:40.946Z,99725.30
2018-07-20T16:26:10.401Z,99715.96
2018-07-20T16:28:39.713Z,99724.23
2018-07-20T16:31:09.174Z,99724.40
2018-07-20T16:33:38.378Z,99719.23
2018-07-20T16:36:07.820Z,99714.09
2018-07-20T16:38:37.111Z,99711.94
2018-07-20T16:41:07.217Z,99706.64
2018-07-20T16:43:36.410Z,99703.73
2018-07-20T16:46:05.889Z,99701.99
2018-07-20T16:48:35.258Z,99696.73
2018-07-20T16:51:04.462Z,99690.91
2018-07-20T16:53:33.834Z,99697.50
2018-07-20T16:56:03.278Z,99698.22
2018-07-20T16:58:32.870Z,99686.08
2018-07-20T17:01:02.161Z,99682.73
2018-07-20T17:03:31.659Z,99687.20
2018-07-20T17:06:00.969Z,99688.62
2018-07-20T17:08:30.313Z,99679.01
2018-07-20T17:10:59.568Z,99683.42
2018-07-20T17:13:28.902Z,99688.11
2018-07-20T17:15:58.430Z,99688.20
2018-07-20T17:18:27.880Z,99681.42
2018-07-20T17:20:57.137Z,99684.09
2018-07-20T17:23:26.504Z,99674.48
2018-07-20T17:25:55.944Z,99677.09
2018-07-20T17:28:25.381Z,99683.33
2018-07-20T17:30:54.545Z,99689.21
2018-07-20T17:33:23.978Z,99686.92
2018-07-20T17:35:53.197Z,99692.08
2018-07-20T17:38:22.745Z,99696.95
2018-07-20T17:40:52.015Z,99689.81
2018-07-20T17:43:21.530Z,99692.80
2018-07-20T17:45:50.816Z,99690.58
2018-07-20T17:48:20.230Z,99695.28
2018-07-20T17:50:49.541Z,99688.97
2018-07-20T17:53:18.904Z,99694.37
2018-07-20T17:55:48.324Z,99697.05
2018-07-20T17:58:17.709Z,99699.64
2018-07-20T18:00:46.986Z,99698.68
2018-07-20T18:03:16.462Z,99701.34
2018-07-20T18:05:45.774Z,99697.47
2018-07-20T18:08:15.018Z,99694.88
2018-07-20T18:10:44.286Z,99693.59
2018-07-20T18:13:13.722Z,99689.84
2018-07-20T18:15:43.097Z,99695.52
2018-07-20T18:18:12.323Z,99693.88
2018-07-20T18:20:41.601Z,99687.21
2018-07-20T18:23:11.339Z,99687.49
2018-07-20T18:25:40.588Z,99692.31
2018-07-20T18:28:09.733Z,99691.80
2018-07-20T18:30:39.081Z,99701.28
2018-07-20T18:33:08.462Z,99695.58
2018-07-20T18:35:37.731Z,99700.96
2018-07-20T18:38:07.126Z,99690.59
2018-07-20T18:40:36.488Z,99693.77
2018-07-20T18:43:05.737Z,99704.05
2018-07-20T18:45:35.041Z,99701.08
2018-07-20T18:48:04.962Z,99697.84
2018-07-20T18:50:35.039Z,99697.97
2018-07-20T18:53:04.405Z,99694.17
2018-07-20T18:55:33.621Z,99698.72
2018-07-20T18:58:02.881Z,99693.61
2018-07-20T19:00:32.349Z,99688.80
2018-07-20T19:03:01.682Z,99695.01
2018-07-20T19:05:31.071Z,99694.84
2018-07-20T19:08:00.375Z,99688.47
2018-07-20T19:10:29.551Z,99697.36
2018-07-20T19:12:58.912Z,99693.22
2018-07-20T19:15:28.175Z,99697.36
2018-07-20T19:17:57.647Z,99692.15
2018-07-20T19:20:26.850Z,99701.25
2018-07-20T19:22:56.297Z,99699.77
2018-07-20T19:25:25.534Z,99700.05
2018-07-20T19:27:54.787Z,99698.41
2018-07-20T19:30:24.279Z,99704.02
2018-07-20T19:32:53.702Z,99706.03
2018-07-20T19:35:23.058Z,99707.56
2018-07-20T19:37:52.413Z,99710.91
2018-07-20T19:40:21.708Z,99706.25
2018-07-20T19:42:50.682Z,99704.02
2018-07-20T19:45:19.942Z,99699.65
2018-07-20T19:47:49.209Z,99700.03
2018-07-20T19:50:19.581Z,99695.10
2018-07-20T19:52:48.882Z,99693.05
2018-07-20T19:55:18.097Z,99698.70
2018-07-20T19:57:47.334Z,99685.30
2018-07-20T20:00:16.280Z,99698.08
2018-07-20T20:02:45.618Z,99699.13
2018-07-20T20:05:14.902Z,99708.98
2018-07-20T20:07:44.343Z,99709.19
2018-07-20T20:10:13.680Z,99710.31
2018-07-20T20:12:43.013Z,99712.02
2018-07-20T20:15:12.350Z,99706.53
2018-07-20T20:17:41.601Z,99704.34
2018-07-20T20:20:13.171Z,99706.60
2018-07-20T20:22:43.195Z,99712.37
2018-07-20T20:25:12.590Z,99715.22
2018-07-20T20:27:42.224Z,99709.14
2018-07-20T20:30:11.551Z,99716.27
2018-07-20T20:32:40.764Z,99702.80
2018-07-20T20:35:10.009Z,99699.25
2018-07-20T20:37:39.456Z,99695.67
2018-07-20T20:40:09.489Z,99696.48
2018-07-20T20:42:38.769Z,99693.48
2018-07-20T20:45:08.691Z,99695.98
2018-07-20T20:47:38.164Z,99704.22
2018-07-20T20:50:07.746Z,99699.53
2018-07-20T20:52:37.362Z,99694.88
2018-07-20T20:55:06.884Z,99694.91
2018-07-20T20:57:36.258Z,99686.97
2018-07-20T21:00:06.230Z,99693.52
2018-07-20T21:02:35.332Z,99691.34
2018-07-20T21:05:04.702Z,99686.67
2018-07-20T21:07:33.937Z,99688.83
2018-07-20T21:10:03.183Z,99680.87
2018-07-20T21:12:32.543Z,99686.03
2018-07-20T21:15:01.951Z,99679.48
2018-07-20T21:17:31.201Z,99682.22
2018-07-20T21:20:00.466Z,99687.09
2018-07-20T21:22:30.117Z,99679.41
2018-07-20T21:24:59.718Z,99677.22
2018-07-20T21:27:29.144Z,99681.02
2018-07-20T21:30:03.237Z,99665.25
2018-07-20T21:32:32.521Z,99663.92
2018-07-20T21:35:01.911Z,99668.03
2018-07-20T21:37:31.311Z,99667.48
2018-07-20T21:40:00.751Z,99665.05
2018-07-20T21:42:30.099Z,99663.28
2018-07-20T21:44:59.410Z,99666.61
2018-07-20T21:47:29.036Z,99667.75
2018-07-20T21:49:58.331Z,99677.02
2018-07-20T21:52:27.596Z,99675.10
2018-07-20T21:54:56.866Z,99681.90
2018-07-20T21:57:26.210Z,99684.63
2018-07-20T21:59:55.444Z,99684.62
2018-07-20T22:02:24.816Z,99675.52
2018-07-20T22:04:54.249Z,99674.91
2018-07-20T22:07:23.623Z,99682.30
2018-07-20T22:09:52.977Z,99681.27
2018-07-20T22:12:22.196Z,99685.38
2018-07-20T22:14:51.583Z,99681.27
2018-07-20T22:17:20.803Z,99679.34
2018-07-20T22:19:50.061Z,99682.34
2018-07-20T22:22:19.309Z,99688.87
2018-07-20T22:24:48.492Z,99691.59
2018-07-20T22:27:17.537Z,99696.52
2018-07-20T22:29:46.859Z,99690.77
2018-07-20T22:32:16.116Z,99680.98
2018-07-20T22:34:45.482Z,99686.66
2018-07-20T22:37:14.834Z,99685.92
2018-07-20T22:39:44.150Z,99692.31
2018-07-20T22:42:13.523Z,99690.08
2018-07-20T22:44:43.227Z,99695.01
2018-07-20T22:47:12.590Z,99694.45
2018-07-20T22:49:41.852Z,99696.41
2018-07-20T22:52:11.221Z,99692.12
2018-07-20T22:54:40.889Z,99690.12
2018-07-20T22:57:10.300Z,99693.80
2018-07-20T22:59:39.732Z,99692.23
2018-07-20T23:02:08.950Z,99695.50
2018-07-20T23:04:38.454Z,99685.73
2018-07-20T23:07:07.741Z,99687.12
2018-07-20T23:09:37.014Z,99678.76
2018-07-20T23:12:06.382Z,99680.70
2018-07-20T23:14:35.896Z,99688.52
2018-07-20T23:17:05.269Z,99676.05
2018-07-20T23:19:34.523Z,99679.22
2018-07-20T23:22:03.895Z,99678.00
2018-07-20T23:24:33.418Z,99676.48
2018-07-20T23:27:02.780Z,99679.05
2018-07-20T23:29:31.995Z,99682.48
2018-07-20T23:32:01.387Z,99673.45
2018-07-20T23:34:30.791Z,99669.16
2018-07-20T23:36:59.991Z,99667.36
2018-07-20T23:39:29.341Z,99666.59
2018-07-20T23:41:58.571Z,99660.33
2018-07-20T23:44:27.821Z,99652.67
2018-07-20T23:46:57.083Z,99646.78
2018-07-20T23:49:26.305Z,99651.64
2018-07-20T23:51:55.629Z,99654.61
2018-07-20T23:54:25.010Z,99651.05
2018-07-20T23:56:54.295Z,99658.33
2018-07-20T23:59:23.868Z,99655.41
